createdAt,value
2022-08-26T00:02:00.007Z,23.83
2022-08-26T00:04:29.553Z,23.77
2022-08-26T00:06:58.410Z,23.76
2022-08-26T00:09:26.131Z,23.78
2022-08-26T00:11:54.406Z,23.70
2022-08-26T00:14:28.315Z,23.66
2022-08-26T00:16:58.882Z,23.72
2022-08-26T00:19:27.850Z,23.70
2022-08-26T00:21:58.398Z,23.70
2022-08-26T00:24:28.377Z,23.71
2022-08-26T00:26:58.255Z,23.67
2022-08-26T00:29:26.191Z,23.70
2022-08-26T00:31:53.592Z,23.68
2022-08-26T00:34:20.977Z,23.64
2022-08-26T00:36:49.215Z,23.50
2022-08-26T00:39:20.048Z,23.41
2022-08-26T00:41:47.994Z,23.44
2022-08-26T00:44:15.271Z,23.34
2022-08-26T00:46:48.698Z,23.31
2022-08-26T00:49:31.416Z,23.25
2022-08-26T00:52:03.342Z,23.12
2022-08-26T00:54:42.413Z,23.19
2022-08-26T00:57:16.464Z,23.05
2022-08-26T00:59:52.024Z,23.14
2022-08-26T01:02:21.480Z,23.17
2022-08-26T01:04:56.463Z,23.14
2022-08-26T01:07:27.424Z,23.19
2022-08-26T01:10:01.269Z,23.16
2022-08-26T01:12:35.415Z,23.12
2022-08-26T01:15:08.151Z,23.13
2022-08-26T01:17:38.771Z,22.98
2022-08-26T01:20:24.293Z,22.94
2022-08-26T01:22:58.496Z,22.89
2022-08-26T01:25:33.704Z,22.89
2022-08-26T01:28:05.856Z,22.83
2022-08-26T01:30:35.577Z,22.86
2022-08-26T01:33:07.001Z,22.79
2022-08-26T01:35:34.237Z,22.71
2022-08-26T01:38:02.359Z,22.70
2022-08-26T01:40:34.234Z,22.72
2022-08-26T01:43:04.022Z,22.72
2022-08-26T01:45:34.594Z,22.59
2022-08-26T01:48:11.671Z,22.59
2022-08-26T01:50:40.050Z,22.53
2022-08-26T01:53:11.341Z,22.62
2022-08-26T01:55:43.262Z,22.64
2022-08-26T01:58:18.610Z,22.67
2022-08-26T02:00:46.737Z,22.73
2022-08-26T02:03:19.138Z,22.72
2022-08-26T02:05:51.447Z,22.68
2022-08-26T02:08:25.305Z,22.67
2022-08-26T02:10:55.030Z,22.75
2022-08-26T02:13:25.519Z,22.75
2022-08-26T02:15:53.952Z,22.80
2022-08-26T02:18:22.904Z,22.83
2022-08-26T02:20:52.859Z,22.79
2022-08-26T02:23:20.423Z,22.77
2022-08-26T02:26:05.101Z,22.75
2022-08-26T02:28:40.616Z,22.62
2022-08-26T02:31:08.338Z,22.63
2022-08-26T02:33:37.362Z,22.54
2022-08-26T02:36:10.694Z,22.57
2022-08-26T02:38:40.696Z,22.45
2022-08-26T02:41:11.348Z,22.46
2022-08-26T02:43:38.460Z,22.48
2022-08-26T02:46:06.095Z,22.46
2022-08-26T02:48:33.499Z,22.47
2022-08-26T02:51:01.853Z,22.45
2022-08-26T02:53:31.798Z,22.41
2022-08-26T02:55:59.903Z,22.36
2022-08-26T02:58:27.398Z,22.36
2022-08-26T03:00:54.731Z,22.30
2022-08-26T03:03:23.655Z,22.30
2022-08-26T03:05:51.762Z,22.27
2022-08-26T03:08:19.539Z,22.24
2022-08-26T03:10:48.031Z,22.21
2022-08-26T03:13:17.374Z,22.13
2022-08-26T03:15:44.707Z,22.07
2022-08-26T03:18:15.095Z,22.04
2022-08-26T03:20:42.269Z,22.03
2022-08-26T03:23:11.263Z,22.09
2022-08-26T03:25:40.042Z,21.98
2022-08-26T03:28:07.691Z,22.01
2022-08-26T03:30:45.813Z,21.98
2022-08-26T03:33:14.430Z,21.99
2022-08-26T03:35:44.041Z,21.95
2022-08-26T03:38:11.860Z,22.07
2022-08-26T03:40:39.959Z,22.06
2022-08-26T03:43:09.608Z,22.01
2022-08-26T03:45:37.922Z,22.05
2022-08-26T03:48:05.780Z,22.01
2022-08-26T03:50:34.208Z,21.99
2022-08-26T03:53:04.041Z,22.07
2022-08-26T03:55:33.201Z,22.09
2022-08-26T03:58:02.181Z,22.13
2022-08-26T04:00:30.387Z,22.14
2022-08-26T04:02:57.983Z,22.16
2022-08-26T04:05:25.543Z,22.11
2022-08-26T04:07:53.226Z,22.11
2022-08-26T04:10:28.435Z,22.18
2022-08-26T04:13:07.944Z,22.24
2022-08-26T04:15:35.901Z,22.15
2022-08-26T04:18:04.556Z,22.25
2022-08-26T04:20:32.048Z,22.21
2022-08-26T04:22:59.587Z,22.22
2022-08-26T04:25:26.650Z,22.22
2022-08-26T04:27:54.227Z,22.21
2022-08-26T04:30:22.152Z,22.25
2022-08-26T04:32:49.945Z,22.26
2022-08-26T04:35:25.691Z,22.25
2022-08-26T04:37:53.835Z,22.23
2022-08-26T04:40:21.317Z,22.26
2022-08-26T04:42:49.436Z,22.28
2022-08-26T04:45:16.797Z,22.29
2022-08-26T04:47:45.171Z,22.31
2022-08-26T04:50:12.828Z,22.43
2022-08-26T04:52:40.480Z,22.52
2022-08-26T04:55:08.800Z,22.57
2022-08-26T04:57:37.246Z,22.56
2022-08-26T05:00:12.745Z,22.33
2022-08-26T05:02:41.239Z,22.69
2022-08-26T05:05:10.647Z,22.78
2022-08-26T05:07:38.222Z,22.86
2022-08-26T05:10:08.782Z,22.97
2022-08-26T05:12:37.943Z,22.99
2022-08-26T05:15:06.063Z,23.02
2022-08-26T05:17:33.675Z,23.01
2022-08-26T05:20:01.009Z,23.08
2022-08-26T05:22:31.066Z,23.21
2022-08-26T05:24:58.242Z,23.22
2022-08-26T05:27:25.622Z,23.26
2022-08-26T05:29:57.362Z,23.21
2022-08-26T05:32:24.579Z,23.23
2022-08-26T05:34:57.125Z,23.17
2022-08-26T05:37:26.119Z,23.38
2022-08-26T05:39:54.241Z,23.40
2022-08-26T05:42:22.039Z,23.45
2022-08-26T05:44:54.088Z,23.46
2022-08-26T05:47:24.634Z,23.52
2022-08-26T05:49:52.821Z,23.57
2022-08-26T05:52:20.595Z,23.61
2022-08-26T05:54:48.119Z,23.65
2022-08-26T05:57:16.124Z,23.66
2022-08-26T05:59:46.044Z,23.68
2022-08-26T06:02:13.386Z,23.78
2022-08-26T06:04:40.994Z,23.87
2022-08-26T06:07:11.640Z,23.91
2022-08-26T06:09:41.556Z,23.89
2022-08-26T06:12:09.208Z,23.95
2022-08-26T06:14:36.532Z,24.02
2022-08-26T06:17:04.503Z,24.10
2022-08-26T06:19:33.110Z,24.08
2022-08-26T06:22:23.303Z,24.19
2022-08-26T06:25:09.918Z,24.33
2022-08-26T06:27:38.252Z,24.52
2022-08-26T06:30:06.656Z,24.62
2022-08-26T06:32:34.602Z,24.65
2022-08-26T06:35:02.678Z,24.75
2022-08-26T06:37:30.918Z,24.86
2022-08-26T06:40:00.765Z,24.91
2022-08-26T06:42:28.009Z,24.95
2022-08-26T06:44:57.630Z,24.99
2022-08-26T06:47:26.241Z,24.98
2022-08-26T06:49:53.603Z,24.99
2022-08-26T06:52:24.554Z,24.94
2022-08-26T06:54:52.334Z,24.95
2022-08-26T06:57:20.585Z,25.04
2022-08-26T06:59:48.743Z,25.05
2022-08-26T07:02:18.667Z,25.17
2022-08-26T07:04:47.901Z,25.28
2022-08-26T07:07:16.270Z,25.33
2022-08-26T07:09:43.475Z,25.39
2022-08-26T07:12:10.826Z,25.55
2022-08-26T07:14:38.567Z,25.61
2022-08-26T07:17:09.193Z,25.77
2022-08-26T07:19:39.786Z,25.77
2022-08-26T07:22:07.349Z,25.83
2022-08-26T07:24:39.066Z,25.92
2022-08-26T07:27:09.781Z,25.92
2022-08-26T07:29:39.288Z,26.03
2022-08-26T07:32:07.820Z,26.06
2022-08-26T07:34:36.783Z,26.01
2022-08-26T07:37:05.960Z,26.20
2022-08-26T07:39:36.651Z,26.17
2022-08-26T07:42:07.887Z,26.33
2022-08-26T07:44:36.911Z,26.48
2022-08-26T07:47:10.126Z,26.61
2022-08-26T07:49:44.418Z,26.68
2022-08-26T07:52:12.490Z,26.79
2022-08-26T07:54:40.795Z,27.12
2022-08-26T07:57:09.422Z,26.93
2022-08-26T07:59:37.748Z,27.08
2022-08-26T08:02:05.226Z,27.27
2022-08-26T08:04:33.151Z,27.41
2022-08-26T08:07:00.525Z,27.03
2022-08-26T08:09:28.781Z,26.94
2022-08-26T08:11:56.204Z,26.82
2022-08-26T08:14:23.709Z,27.01
2022-08-26T08:16:54.518Z,26.94
2022-08-26T08:19:23.924Z,26.72
2022-08-26T08:22:17.111Z,26.91
2022-08-26T08:24:45.347Z,27.16
2022-08-26T08:27:23.502Z,27.33
2022-08-26T08:29:55.031Z,27.17
2022-08-26T08:32:23.542Z,27.07
2022-08-26T08:34:50.742Z,26.92
2022-08-26T08:37:18.073Z,26.79
2022-08-26T08:39:45.734Z,26.77
2022-08-26T08:42:31.772Z,26.97
2022-08-26T08:45:08.118Z,26.80
2022-08-26T08:47:48.064Z,26.58
2022-08-26T08:50:28.745Z,26.62
2022-08-26T08:53:20.513Z,26.67
2022-08-26T08:56:02.710Z,26.45
2022-08-26T08:58:53.681Z,26.51
2022-08-26T09:01:33.504Z,26.54
2022-08-26T09:04:34.410Z,26.70
2022-08-26T09:07:04.561Z,26.75
2022-08-26T09:09:40.620Z,26.78
2022-08-26T09:12:17.021Z,26.78
2022-08-26T09:14:47.470Z,26.92
2022-08-26T09:17:31.551Z,27.18
2022-08-26T09:20:10.858Z,27.28
2022-08-26T09:22:44.165Z,27.15
2022-08-26T09:25:14.454Z,27.25
2022-08-26T09:27:51.204Z,27.38
2022-08-26T09:30:29.646Z,27.42
2022-08-26T09:33:03.971Z,27.47
2022-08-26T09:35:41.055Z,27.49
2022-08-26T09:38:26.663Z,27.53
2022-08-26T09:41:02.094Z,27.63
2022-08-26T09:43:30.093Z,27.69
2022-08-26T09:46:27.604Z,27.79
2022-08-26T09:48:54.932Z,27.86
2022-08-26T09:51:32.238Z,27.87
2022-08-26T09:54:02.359Z,27.56
2022-08-26T09:56:39.455Z,27.62
2022-08-26T09:59:11.194Z,27.59
2022-08-26T10:01:44.954Z,27.46
2022-08-26T10:04:21.966Z,27.49
2022-08-26T10:06:56.357Z,27.53
2022-08-26T10:09:26.545Z,27.46
2022-08-26T10:12:10.570Z,27.56
2022-08-26T10:17:22.832Z,27.58
2022-08-26T10:20:16.798Z,27.76
2022-08-26T10:23:00.797Z,27.94
2022-08-26T10:25:49.003Z,27.82
2022-08-26T10:28:21.023Z,28.10
2022-08-26T10:31:00.942Z,28.34
2022-08-26T10:33:28.720Z,28.68
2022-08-26T10:36:02.018Z,28.86
2022-08-26T10:38:34.779Z,29.05
2022-08-26T10:41:13.380Z,29.26
2022-08-26T10:43:57.117Z,29.43
2022-08-26T10:46:37.374Z,29.53
2022-08-26T10:49:15.488Z,29.67
2022-08-26T10:52:16.373Z,29.85
2022-08-26T10:54:59.796Z,29.61
2022-08-26T10:57:55.996Z,29.61
2022-08-26T11:01:10.117Z,29.77
2022-08-26T11:03:50.838Z,29.79
2022-08-26T11:06:31.565Z,29.81
2022-08-26T11:09:06.250Z,29.73
2022-08-26T11:11:40.203Z,29.67
2022-08-26T11:14:29.012Z,29.72
2022-08-26T11:16:58.971Z,29.83
2022-08-26T11:20:00.688Z,29.91
2022-08-26T11:22:47.851Z,29.58
2022-08-26T11:25:21.014Z,29.48
2022-08-26T11:27:48.173Z,29.57
2022-08-26T11:30:18.553Z,29.31
2022-08-26T11:32:53.353Z,29.34
2022-08-26T11:35:20.751Z,29.47
2022-08-26T11:37:48.561Z,29.48
2022-08-26T11:40:19.503Z,29.39
2022-08-26T11:42:50.770Z,29.25
2022-08-26T11:45:31.296Z,29.29
2022-08-26T11:47:59.006Z,29.25
2022-08-26T11:50:29.018Z,29.25
2022-08-26T11:53:06.248Z,29.26
2022-08-26T11:55:41.935Z,29.27
2022-08-26T11:58:12.975Z,29.27
2022-08-26T12:00:46.283Z,29.29
2022-08-26T12:03:20.813Z,29.28
2022-08-26T12:05:52.440Z,29.38
2022-08-26T12:08:27.790Z,29.50
2022-08-26T12:11:09.713Z,29.57
2022-08-26T12:13:39.393Z,29.65
2022-08-26T12:16:07.577Z,29.66
2022-08-26T12:18:39.618Z,29.76
2022-08-26T12:21:20.340Z,29.71
2022-08-26T12:23:52.726Z,29.77
2022-08-26T12:26:23.308Z,29.73
2022-08-26T12:29:12.665Z,29.83
2022-08-26T12:31:48.578Z,29.89
2022-08-26T12:34:18.547Z,29.91
2022-08-26T12:36:50.436Z,30.06
2022-08-26T12:39:28.951Z,30.13
2022-08-26T12:42:01.627Z,30.16
2022-08-26T12:44:53.882Z,30.22
2022-08-26T12:47:32.717Z,30.26
2022-08-26T12:50:26.443Z,30.13
2022-08-26T12:53:33.257Z,30.12
2022-08-26T12:56:04.671Z,30.29
2022-08-26T12:58:35.008Z,30.30
2022-08-26T13:01:05.298Z,30.34
2022-08-26T13:03:37.222Z,30.35
2022-08-26T13:06:22.718Z,30.40
2022-08-26T13:09:11.500Z,30.34
2022-08-26T13:11:45.190Z,30.42
2022-08-26T13:14:23.759Z,30.37
2022-08-26T13:16:52.438Z,30.44
2022-08-26T13:19:29.676Z,30.44
2022-08-26T13:21:59.214Z,30.46
2022-08-26T13:24:31.736Z,30.43
2022-08-26T13:26:59.777Z,30.42
2022-08-26T13:29:27.539Z,30.45
2022-08-26T13:31:56.375Z,30.49
2022-08-26T13:34:25.430Z,30.49
2022-08-26T13:36:54.701Z,30.59
2022-08-26T13:39:23.076Z,30.61
2022-08-26T13:41:50.747Z,30.67
2022-08-26T13:44:18.442Z,30.68
2022-08-26T13:49:18.303Z,30.66
2022-08-26T13:51:46.206Z,30.66
2022-08-26T13:54:13.302Z,30.68
2022-08-26T13:56:40.739Z,30.59
2022-08-26T13:59:07.983Z,30.53
2022-08-26T14:01:36.150Z,30.44
2022-08-26T14:04:03.891Z,30.35
2022-08-26T14:06:31.344Z,30.29
2022-08-26T14:08:58.966Z,30.20
2022-08-26T14:11:27.168Z,30.14
2022-08-26T14:13:54.374Z,30.09
2022-08-26T14:16:29.318Z,29.99
2022-08-26T14:18:56.645Z,29.96
2022-08-26T14:21:25.190Z,29.97
2022-08-26T14:23:52.692Z,29.92
2022-08-26T14:26:28.783Z,29.91
2022-08-26T14:29:00.334Z,29.85
2022-08-26T14:31:29.492Z,29.72
2022-08-26T14:34:03.639Z,29.70
2022-08-26T14:36:32.584Z,29.71
2022-08-26T14:39:04.438Z,29.65
2022-08-26T14:41:33.427Z,29.61
2022-08-26T14:44:05.050Z,29.50
2022-08-26T14:46:37.906Z,29.51
2022-08-26T14:49:09.848Z,29.45
2022-08-26T14:51:39.030Z,29.34
2022-08-26T14:54:12.587Z,29.37
2022-08-26T14:56:46.488Z,29.26
2022-08-26T14:59:17.747Z,29.17
2022-08-26T15:01:45.854Z,28.99
2022-08-26T15:04:13.930Z,29.03
2022-08-26T15:06:41.111Z,28.98
2022-08-26T15:09:08.533Z,28.86
2022-08-26T15:11:36.119Z,28.85
2022-08-26T15:14:03.339Z,28.78
2022-08-26T15:16:31.143Z,28.71
2022-08-26T15:19:01.207Z,28.66
2022-08-26T15:21:28.623Z,28.65
2022-08-26T15:23:55.659Z,28.60
2022-08-26T15:26:23.849Z,28.58
2022-08-26T15:28:51.768Z,28.57
2022-08-26T15:31:19.399Z,28.53
2022-08-26T15:33:47.285Z,28.47
2022-08-26T15:36:14.482Z,28.44
2022-08-26T15:38:42.597Z,28.34
2022-08-26T15:41:10.411Z,28.32
2022-08-26T15:43:38.736Z,28.27
2022-08-26T15:46:10.952Z,28.19
2022-08-26T15:48:38.801Z,28.21
2022-08-26T15:51:07.459Z,28.17
2022-08-26T15:53:35.724Z,28.11
2022-08-26T15:56:03.299Z,28.07
2022-08-26T15:58:30.527Z,28.01
2022-08-26T16:00:58.522Z,28.00
2022-08-26T16:03:25.604Z,27.96
2022-08-26T16:05:53.583Z,27.95
2022-08-26T16:08:21.329Z,27.89
2022-08-26T16:10:50.849Z,27.86
2022-08-26T16:13:19.958Z,27.84
2022-08-26T16:15:48.437Z,27.77
2022-08-26T16:18:16.373Z,27.79
2022-08-26T16:20:50.140Z,27.73
2022-08-26T16:23:32.175Z,27.72
2022-08-26T16:25:59.523Z,27.67
2022-08-26T16:28:26.974Z,27.67
2022-08-26T16:30:54.439Z,27.67
2022-08-26T16:33:29.244Z,27.65
2022-08-26T16:35:56.940Z,27.61
2022-08-26T16:38:24.567Z,27.58
2022-08-26T16:40:51.693Z,27.58
2022-08-26T16:43:18.858Z,27.58
2022-08-26T16:45:46.008Z,27.57
2022-08-26T16:48:13.605Z,27.56
2022-08-26T16:50:42.496Z,27.49
2022-08-26T16:55:37.363Z,27.44
2022-08-26T16:58:04.732Z,27.42
2022-08-26T17:00:33.151Z,27.34
2022-08-26T17:03:01.581Z,27.20
2022-08-26T17:05:29.737Z,27.22
2022-08-26T17:07:59.873Z,27.14
2022-08-26T17:10:28.248Z,27.13
2022-08-26T17:12:56.891Z,26.97
2022-08-26T17:15:24.114Z,27.04
2022-08-26T17:17:52.495Z,26.97
2022-08-26T17:20:21.511Z,26.93
2022-08-26T17:22:59.492Z,26.90
2022-08-26T17:25:32.227Z,26.91
2022-08-26T17:28:03.338Z,26.85
2022-08-26T17:30:31.993Z,26.77
2022-08-26T17:32:59.945Z,26.71
2022-08-26T17:35:27.283Z,26.65
2022-08-26T17:37:56.263Z,26.63
2022-08-26T17:40:29.793Z,26.62
2022-08-26T17:42:58.849Z,26.60
2022-08-26T17:45:26.886Z,26.61
2022-08-26T17:47:57.047Z,26.58
2022-08-26T17:50:25.733Z,26.55
2022-08-26T17:52:52.948Z,26.47
2022-08-26T17:55:20.568Z,26.43
2022-08-26T17:57:53.545Z,26.42
2022-08-26T18:00:27.679Z,26.36
2022-08-26T18:02:55.586Z,26.34
2022-08-26T18:05:23.481Z,26.34
2022-08-26T18:07:51.839Z,26.30
2022-08-26T18:10:21.783Z,26.25
2022-08-26T18:12:49.188Z,26.25
2022-08-26T18:15:17.409Z,26.19
2022-08-26T18:17:45.232Z,26.23
2022-08-26T18:20:16.715Z,26.23
2022-08-26T18:22:44.973Z,26.29
2022-08-26T18:25:14.362Z,26.26
2022-08-26T18:27:45.068Z,26.23
2022-08-26T18:30:23.507Z,26.21
2022-08-26T18:32:53.259Z,26.16
2022-08-26T18:35:22.334Z,26.13
2022-08-26T18:37:49.817Z,26.11
2022-08-26T18:40:17.909Z,26.07
2022-08-26T18:42:45.768Z,25.83
2022-08-26T18:45:17.747Z,26.00
2022-08-26T18:47:48.424Z,25.98
2022-08-26T18:50:15.859Z,25.98
2022-08-26T18:52:44.946Z,25.99
2022-08-26T18:55:15.568Z,25.94
2022-08-26T18:57:43.659Z,25.95
2022-08-26T19:00:11.638Z,25.90
2022-08-26T19:02:39.529Z,25.92
2022-08-26T19:05:07.237Z,25.88
2022-08-26T19:07:39.633Z,25.78
2022-08-26T19:10:07.580Z,25.66
2022-08-26T19:12:36.599Z,25.60
2022-08-26T19:15:04.471Z,25.49
2022-08-26T19:17:31.837Z,25.51
2022-08-26T19:19:58.908Z,25.58
2022-08-26T19:22:27.345Z,25.66
2022-08-26T19:24:54.549Z,25.69
2022-08-26T19:27:21.688Z,25.65
2022-08-26T19:29:49.046Z,25.52
2022-08-26T19:32:17.728Z,25.40
2022-08-26T19:34:45.037Z,25.38
2022-08-26T19:37:12.284Z,25.34
2022-08-26T19:39:39.795Z,25.21
2022-08-26T19:42:09.077Z,25.21
2022-08-26T19:44:56.158Z,25.21
2022-08-26T19:47:23.977Z,25.16
2022-08-26T19:49:56.005Z,25.14
2022-08-26T19:52:29.853Z,25.09
2022-08-26T19:55:00.244Z,25.07
2022-08-26T19:57:27.707Z,25.10
2022-08-26T19:59:54.843Z,25.08
2022-08-26T20:02:22.183Z,25.13
2022-08-26T20:04:49.438Z,25.07
2022-08-26T20:07:18.836Z,24.97
2022-08-26T20:09:47.847Z,25.02
2022-08-26T20:12:16.355Z,25.05
2022-08-26T20:14:44.266Z,24.99
2022-08-26T20:17:11.790Z,24.99
2022-08-26T20:19:57.460Z,24.98
2022-08-26T20:22:25.601Z,24.94
2022-08-26T20:24:52.896Z,24.96
2022-08-26T20:27:22.309Z,24.87
2022-08-26T20:29:49.858Z,24.88
2022-08-26T20:32:18.787Z,24.86
2022-08-26T20:34:46.190Z,24.87
2022-08-26T20:37:13.397Z,24.84
2022-08-26T20:39:41.427Z,24.76
2022-08-26T20:42:19.809Z,24.78
2022-08-26T20:44:54.898Z,24.73
2022-08-26T20:47:23.242Z,24.69
2022-08-26T20:49:52.572Z,24.63
2022-08-26T20:52:20.051Z,24.62
2022-08-26T20:54:47.258Z,24.66
2022-08-26T20:57:14.828Z,24.69
2022-08-26T20:59:43.162Z,24.71
2022-08-26T21:02:10.388Z,24.85
2022-08-26T21:04:38.008Z,24.78
2022-08-26T21:07:05.299Z,24.66
2022-08-26T21:09:33.262Z,24.63
2022-08-26T21:12:00.668Z,24.67
2022-08-26T21:14:28.770Z,24.72
2022-08-26T21:16:57.262Z,24.74
2022-08-26T21:19:24.743Z,24.70
2022-08-26T21:21:52.446Z,24.58
2022-08-26T21:24:21.739Z,24.51
2022-08-26T21:26:49.690Z,24.33
2022-08-26T21:29:16.979Z,24.35
2022-08-26T21:31:46.783Z,24.24
2022-08-26T21:34:17.571Z,24.23
2022-08-26T21:36:48.610Z,24.15
2022-08-26T21:39:16.831Z,24.17
2022-08-26T21:41:45.733Z,24.18
2022-08-26T21:44:14.975Z,24.21
2022-08-26T21:46:43.895Z,24.21
2022-08-26T21:49:16.252Z,24.19
2022-08-26T21:51:47.393Z,24.13
2022-08-26T21:54:16.273Z,24.18
2022-08-26T21:56:46.920Z,24.03
2022-08-26T21:59:17.000Z,24.07
2022-08-26T22:01:44.339Z,24.09
2022-08-26T22:04:11.752Z,24.06
2022-08-26T22:06:45.387Z,24.06
2022-08-26T22:09:14.446Z,24.07
2022-08-26T22:11:41.974Z,24.00
2022-08-26T22:14:10.211Z,24.12
2022-08-26T22:16:37.884Z,24.10
2022-08-26T22:19:05.584Z,24.08
2022-08-26T22:21:35.402Z,24.07
2022-08-26T22:24:04.145Z,24.06
2022-08-26T22:26:33.065Z,24.05
2022-08-26T22:29:01.319Z,24.06
2022-08-26T22:31:37.918Z,23.97
2022-08-26T22:34:10.284Z,24.03
2022-08-26T22:36:43.682Z,24.10
2022-08-26T22:39:14.350Z,24.10
2022-08-26T22:41:43.499Z,24.01
2022-08-26T22:44:12.057Z,24.01
2022-08-26T22:46:40.771Z,24.01
2022-08-26T22:49:10.089Z,23.93
2022-08-26T22:51:37.574Z,23.94
2022-08-26T22:54:06.228Z,23.94
2022-08-26T22:56:34.136Z,24.04
2022-08-26T22:59:01.382Z,24.05
2022-08-26T23:01:29.512Z,24.03
2022-08-26T23:03:58.159Z,23.89
2022-08-26T23:06:25.531Z,23.85
2022-08-26T23:08:53.249Z,23.79
2022-08-26T23:11:20.684Z,23.78
2022-08-26T23:13:48.149Z,23.77
2022-08-26T23:16:16.074Z,23.70
2022-08-26T23:18:44.354Z,23.64
2022-08-26T23:21:16.533Z,23.65
2022-08-26T23:23:45.486Z,23.66
2022-08-26T23:26:17.416Z,23.65
2022-08-26T23:28:45.305Z,23.61
2022-08-26T23:31:14.418Z,23.56
2022-08-26T23:34:00.310Z,23.49
2022-08-26T23:36:28.668Z,23.46
2022-08-26T23:38:58.207Z,23.43
2022-08-26T23:41:25.395Z,23.47
2022-08-26T23:43:53.227Z,23.46
2022-08-26T23:46:20.764Z,23.45
2022-08-26T23:48:48.861Z,23.41
2022-08-26T23:51:34.714Z,23.41
2022-08-26T23:54:02.411Z,23.39
2022-08-26T23:56:29.579Z,23.30
2022-08-26T23:58:57.172Z,23.37
